createdAt,value
2022-08-18T00:01:32.159Z,32.05
2022-08-18T00:04:03.195Z,33.95
2022-08-18T00:06:31.660Z,29.65
2022-08-18T00:09:06.341Z,32.65
2022-08-18T00:11:40.911Z,50.55
2022-08-18T00:14:11.410Z,31.17
2022-08-18T00:16:41.690Z,28.60
2022-08-18T00:19:10.808Z,28.07
2022-08-18T00:21:39.506Z,31.10
2022-08-18T00:24:10.968Z,30.45
2022-08-18T00:26:39.552Z,31.48
2022-08-18T00:29:09.697Z,30.08
2022-08-18T00:31:38.421Z,28.98
2022-08-18T00:34:07.432Z,33.28
2022-08-18T00:36:36.113Z,30.60
2022-08-18T00:39:05.174Z,28.70
2022-08-18T00:41:33.860Z,30.82
2022-08-18T00:44:04.454Z,27.22
2022-08-18T00:46:35.472Z,29.95
2022-08-18T00:49:04.918Z,34.50
2022-08-18T00:51:48.312Z,38.08
2022-08-18T00:54:22.788Z,31.50
2022-08-18T00:56:55.340Z,32.05
2022-08-18T00:59:35.892Z,33.33
2022-08-18T01:02:07.715Z,31.27
2022-08-18T01:04:42.406Z,32.25
2022-08-18T01:07:14.047Z,32.83
2022-08-18T01:09:42.656Z,32.67
2022-08-18T01:12:46.009Z,32.03
2022-08-18T01:14:44.532Z,30.48
2022-08-18T01:17:31.545Z,30.60
2022-08-18T01:20:18.044Z,32.05
2022-08-18T01:22:52.635Z,33.02
2022-08-18T01:25:40.825Z,29.92
2022-08-18T01:28:09.428Z,32.60
2022-08-18T01:30:53.215Z,31.82
2022-08-18T01:33:21.814Z,32.28
2022-08-18T01:35:52.317Z,34.30
2022-08-18T01:38:22.711Z,35.17
2022-08-18T01:41:22.508Z,36.53
2022-08-18T01:43:22.238Z,36.15
2022-08-18T01:45:50.842Z,34.40
2022-08-18T01:48:19.509Z,32.13
2022-08-18T01:50:49.259Z,33.02
2022-08-18T01:53:19.103Z,39.42
2022-08-18T01:55:47.652Z,37.93
2022-08-18T01:58:19.199Z,38.10
2022-08-18T02:00:47.791Z,37.10
2022-08-18T02:03:17.944Z,37.08
2022-08-18T02:05:49.405Z,37.03
2022-08-18T02:08:18.407Z,37.03
2022-08-18T02:10:47.474Z,36.80
2022-08-18T02:13:18.694Z,37.40
2022-08-18T02:15:47.557Z,40.05
2022-08-18T02:18:24.492Z,44.88
2022-08-18T02:20:52.253Z,44.08
2022-08-18T02:23:20.507Z,41.45
2022-08-18T02:25:48.890Z,45.12
2022-08-18T02:28:19.928Z,45.38
2022-08-18T02:30:48.104Z,47.65
2022-08-18T02:33:19.103Z,46.58
2022-08-18T02:35:48.914Z,47.95
2022-08-18T02:38:18.689Z,54.48
2022-08-18T02:40:47.418Z,51.58
2022-08-18T02:43:17.026Z,54.20
2022-08-18T02:45:45.757Z,51.05
2022-08-18T02:48:14.314Z,43.02
2022-08-18T02:50:48.976Z,50.63
2022-08-18T02:53:22.065Z,46.73
2022-08-18T02:55:50.654Z,46.98
2022-08-18T02:58:20.718Z,44.53
2022-08-18T03:00:49.525Z,45.45
2022-08-18T03:03:19.746Z,41.70
2022-08-18T03:05:48.331Z,45.40
2022-08-18T03:08:16.848Z,48.95
2022-08-18T03:10:46.098Z,51.08
2022-08-18T03:13:14.635Z,59.88
2022-08-18T03:15:44.585Z,53.95
2022-08-18T03:18:13.459Z,55.03
2022-08-18T03:20:43.679Z,58.48
2022-08-18T03:23:13.088Z,55.03
2022-08-18T03:25:48.898Z,59.35
2022-08-18T03:28:20.329Z,58.87
2022-08-18T03:30:49.390Z,60.73
2022-08-18T03:33:17.900Z,57.75
2022-08-18T03:35:46.499Z,57.40
2022-08-18T03:38:15.088Z,56.50
2022-08-18T03:40:43.669Z,55.85
2022-08-18T03:43:50.058Z,56.05
2022-08-18T03:45:42.168Z,57.70
2022-08-18T03:48:10.935Z,55.00
2022-08-18T03:50:39.555Z,59.95
2022-08-18T03:53:08.141Z,57.65
2022-08-18T03:55:36.635Z,45.83
2022-08-18T03:58:05.189Z,47.45
2022-08-18T04:00:34.351Z,43.85
2022-08-18T04:03:04.264Z,37.80
2022-08-18T04:05:35.162Z,40.83
2022-08-18T04:08:05.461Z,41.70
2022-08-18T04:10:35.473Z,37.05
2022-08-18T04:13:05.868Z,39.30
2022-08-18T04:15:34.765Z,42.98
2022-08-18T04:18:05.297Z,42.10
2022-08-18T04:20:34.029Z,37.20
2022-08-18T04:23:03.203Z,38.28
2022-08-18T04:25:33.386Z,37.40
2022-08-18T04:28:03.425Z,38.33
2022-08-18T04:30:32.222Z,35.43
2022-08-18T04:33:02.712Z,37.50
2022-08-18T04:35:32.033Z,36.58
2022-08-18T04:38:00.714Z,35.28
2022-08-18T04:40:29.609Z,36.93
2022-08-18T04:42:58.426Z,37.98
2022-08-18T04:45:27.008Z,37.28
2022-08-18T04:47:55.744Z,35.25
2022-08-18T04:50:26.059Z,36.30
2022-08-18T04:53:12.418Z,36.58
2022-08-18T04:55:42.816Z,36.15
2022-08-18T04:58:11.422Z,36.00
2022-08-18T05:00:40.078Z,34.60
2022-08-18T05:03:08.368Z,37.65
2022-08-18T05:05:36.866Z,33.02
2022-08-18T05:08:05.321Z,36.30
2022-08-18T05:10:33.569Z,34.43
2022-08-18T05:13:01.832Z,34.75
2022-08-18T05:15:42.175Z,34.65
2022-08-18T05:17:59.941Z,36.38
2022-08-18T05:20:28.196Z,35.00
2022-08-18T05:22:57.198Z,35.48
2022-08-18T05:25:26.724Z,32.65
2022-08-18T05:27:54.964Z,35.70
2022-08-18T05:30:23.162Z,35.88
2022-08-18T05:32:51.410Z,36.65
2022-08-18T05:35:24.130Z,33.78
2022-08-18T05:38:00.559Z,30.62
2022-08-18T05:40:30.566Z,36.40
2022-08-18T05:42:59.291Z,32.53
2022-08-18T05:45:30.690Z,36.33
2022-08-18T05:48:00.493Z,40.03
2022-08-18T05:50:31.886Z,37.10
2022-08-18T05:53:03.582Z,34.95
2022-08-18T05:56:20.228Z,32.90
2022-08-18T05:58:51.827Z,34.38
2022-08-18T06:01:23.562Z,30.65
2022-08-18T06:03:59.687Z,35.90
2022-08-18T06:06:33.791Z,35.33
2022-08-18T06:09:23.391Z,35.75
2022-08-18T06:11:54.026Z,36.00
2022-08-18T06:14:22.466Z,34.58
2022-08-18T06:16:57.022Z,29.12
2022-08-18T06:19:44.984Z,36.30
2022-08-18T06:22:16.698Z,35.78
2022-08-18T06:25:06.319Z,32.95
2022-08-18T06:27:40.899Z,34.85
2022-08-18T06:30:12.555Z,36.75
2022-08-18T06:32:44.566Z,38.60
2022-08-18T06:35:24.946Z,36.27
2022-08-18T06:38:35.545Z,34.90
2022-08-18T06:41:38.132Z,38.65
2022-08-18T06:44:01.478Z,34.45
2022-08-18T06:46:48.120Z,35.48
2022-08-18T06:49:19.785Z,37.83
2022-08-18T06:51:48.069Z,39.18
2022-08-18T06:54:28.460Z,34.33
2022-08-18T06:56:58.811Z,35.60
2022-08-18T06:59:36.581Z,36.50
2022-08-18T07:02:28.339Z,34.20
2022-08-18T07:05:05.721Z,35.95
2022-08-18T07:07:41.000Z,38.73
2022-08-18T07:10:18.597Z,41.88
2022-08-18T07:12:46.864Z,33.75
2022-08-18T07:15:16.746Z,34.95
2022-08-18T07:17:46.729Z,33.67
2022-08-18T07:20:22.481Z,35.25
2022-08-18T07:22:59.831Z,36.28
2022-08-18T07:25:41.868Z,39.58
2022-08-18T07:28:28.133Z,36.15
2022-08-18T07:31:15.903Z,38.02
2022-08-18T07:33:28.166Z,34.15
2022-08-18T07:35:58.005Z,36.55
2022-08-18T07:38:43.862Z,37.42
2022-08-18T07:41:21.392Z,36.13
2022-08-18T07:43:53.740Z,35.85
2022-08-18T07:46:23.587Z,34.60
2022-08-18T07:48:52.331Z,32.85
2022-08-18T07:51:23.566Z,38.17
2022-08-18T07:53:56.899Z,31.55
2022-08-18T07:56:43.395Z,32.30
2022-08-18T07:59:19.203Z,38.15
2022-08-18T08:01:52.233Z,35.08
2022-08-18T08:04:31.192Z,35.70
2022-08-18T08:07:25.383Z,32.15
2022-08-18T08:09:58.004Z,32.63
2022-08-18T08:12:42.879Z,33.85
2022-08-18T08:15:26.992Z,29.35
2022-08-18T08:17:54.031Z,32.15
2022-08-18T08:20:23.962Z,32.05
2022-08-18T08:22:55.499Z,31.35
2022-08-18T08:25:45.916Z,31.73
2022-08-18T08:28:00.492Z,33.53
2022-08-18T08:30:29.814Z,37.38
2022-08-18T08:33:02.569Z,33.18
2022-08-18T08:38:23.005Z,32.17
2022-08-18T08:40:53.007Z,31.35
2022-08-18T08:43:30.484Z,31.12
2022-08-18T08:46:05.692Z,31.70
2022-08-18T08:48:37.384Z,29.32
2022-08-18T08:51:36.260Z,28.67
2022-08-18T08:54:11.184Z,32.75
2022-08-18T08:56:45.798Z,26.82
2022-08-18T08:59:17.699Z,28.25
2022-08-18T09:02:01.422Z,30.52
2022-08-18T09:04:39.417Z,27.05
2022-08-18T09:07:15.556Z,27.90
2022-08-18T09:09:56.403Z,32.88
2022-08-18T09:12:43.502Z,29.27
2022-08-18T09:15:21.108Z,25.77
2022-08-18T09:18:29.083Z,29.12
2022-08-18T09:21:00.813Z,30.72
2022-08-18T09:23:35.251Z,25.72
2022-08-18T09:26:26.525Z,24.82
2022-08-18T09:29:01.677Z,22.17
2022-08-18T09:31:32.341Z,26.00
2022-08-18T09:34:24.388Z,21.48
2022-08-18T09:37:15.312Z,21.75
2022-08-18T09:40:11.014Z,20.65
2022-08-18T09:42:49.693Z,21.12
2022-08-18T09:45:35.482Z,19.75
2022-08-18T09:48:10.104Z,15.70
2022-08-18T09:50:54.227Z,16.95
2022-08-18T09:53:40.132Z,14.78
2022-08-18T09:56:08.849Z,16.62
2022-08-18T09:59:00.930Z,15.10
2022-08-18T10:01:41.143Z,16.10
2022-08-18T10:06:52.297Z,10.87
2022-08-18T10:09:36.552Z,11.95
2022-08-18T10:12:28.289Z,10.60
2022-08-18T10:15:03.170Z,10.25
2022-08-18T10:17:44.690Z,9.48
2022-08-18T10:20:34.503Z,11.28
2022-08-18T10:23:04.531Z,10.63
2022-08-18T10:25:41.014Z,9.63
2022-08-18T10:28:13.423Z,12.00
2022-08-18T10:30:56.781Z,9.40
2022-08-18T10:33:21.373Z,9.33
2022-08-18T10:36:03.052Z,9.18
2022-08-18T10:38:40.683Z,8.70
2022-08-18T10:41:15.760Z,9.53
2022-08-18T10:43:58.057Z,8.23
2022-08-18T10:46:25.414Z,8.80
2022-08-18T10:49:14.723Z,10.08
2022-08-18T10:51:59.206Z,8.05
2022-08-18T10:54:51.775Z,8.05
2022-08-18T10:57:24.590Z,7.55
2022-08-18T10:59:56.267Z,10.45
2022-08-18T11:02:46.059Z,8.10
2022-08-18T11:05:19.496Z,7.62
2022-08-18T11:07:49.050Z,7.85
2022-08-18T11:10:32.226Z,7.72
2022-08-18T11:13:10.943Z,7.80
2022-08-18T11:15:42.045Z,8.05
2022-08-18T11:21:22.234Z,7.75
2022-08-18T11:24:08.474Z,7.37
2022-08-18T11:26:39.798Z,7.20
2022-08-18T11:29:21.953Z,7.62
2022-08-18T11:32:02.133Z,7.00
2022-08-18T11:34:38.100Z,7.78
2022-08-18T11:37:09.833Z,8.98
2022-08-18T11:39:45.830Z,7.40
2022-08-18T11:42:21.817Z,8.30
2022-08-18T11:44:46.780Z,7.65
2022-08-18T11:47:17.261Z,9.03
2022-08-18T11:49:47.617Z,7.97
2022-08-18T11:52:26.237Z,7.00
2022-08-18T11:54:54.363Z,8.65
2022-08-18T11:57:31.454Z,11.43
2022-08-18T12:00:00.916Z,11.43
2022-08-18T12:02:29.551Z,11.45
2022-08-18T12:07:35.813Z,9.65
2022-08-18T12:10:25.697Z,9.63
2022-08-18T12:12:53.130Z,12.25
2022-08-18T12:15:29.666Z,9.85
2022-08-18T12:17:56.240Z,9.38
2022-08-18T12:20:24.675Z,10.10
2022-08-18T12:22:54.798Z,8.93
2022-08-18T12:25:24.781Z,12.35
2022-08-18T12:27:54.432Z,9.70
2022-08-18T12:30:23.310Z,10.32
2022-08-18T12:32:55.908Z,10.85
2022-08-18T12:35:23.641Z,8.93
2022-08-18T12:40:23.525Z,9.85
2022-08-18T12:45:25.684Z,9.33
2022-08-18T12:47:55.367Z,9.00
2022-08-18T12:50:31.441Z,8.60
2022-08-18T12:52:57.596Z,8.03
2022-08-18T12:55:26.241Z,7.67
2022-08-18T12:57:54.574Z,10.78
2022-08-18T13:00:28.821Z,9.13
2022-08-18T13:02:53.142Z,7.65
2022-08-18T13:05:26.352Z,8.83
2022-08-18T13:07:51.987Z,8.70
2022-08-18T13:10:21.780Z,8.38
2022-08-18T13:12:50.667Z,10.15
2022-08-18T13:15:20.895Z,10.60
2022-08-18T13:17:50.798Z,9.40
2022-08-18T13:20:21.402Z,10.13
2022-08-18T13:22:50.397Z,9.93
2022-08-18T13:25:28.892Z,9.88
2022-08-18T13:27:51.197Z,12.28
2022-08-18T13:30:30.598Z,11.03
2022-08-18T13:33:00.407Z,12.55
2022-08-18T13:35:24.155Z,10.85
2022-08-18T13:37:55.633Z,10.88
2022-08-18T13:40:24.024Z,12.60
2022-08-18T13:42:54.268Z,11.78
2022-08-18T13:45:24.806Z,13.48
2022-08-18T13:47:54.204Z,11.30
2022-08-18T13:50:29.713Z,12.58
2022-08-18T13:52:56.016Z,11.50
2022-08-18T13:55:26.238Z,11.40
2022-08-18T13:57:54.945Z,12.40
2022-08-18T14:00:29.582Z,14.57
2022-08-18T14:02:56.994Z,12.88
2022-08-18T14:05:36.824Z,11.78
2022-08-18T14:07:56.571Z,11.50
2022-08-18T14:10:25.760Z,12.20
2022-08-18T14:12:57.815Z,10.53
2022-08-18T14:15:26.138Z,10.35
2022-08-18T14:17:55.361Z,10.53
2022-08-18T14:20:48.297Z,9.27
2022-08-18T14:23:33.410Z,10.17
2022-08-18T19:41:19.831Z,3.90
2022-08-18T19:43:52.058Z,4.40
2022-08-18T19:46:37.809Z,5.40
2022-08-18T19:49:10.617Z,4.47
2022-08-18T19:54:10.861Z,4.45
2022-08-18T19:56:40.667Z,4.60
2022-08-18T19:59:27.000Z,9.73
2022-08-18T20:02:01.140Z,4.67
2022-08-18T20:04:43.385Z,8.38
2022-08-18T20:07:16.083Z,4.30
2022-08-18T20:12:25.277Z,4.47
2022-08-18T20:15:03.223Z,4.78
2022-08-18T20:17:31.820Z,4.28
2022-08-18T20:20:06.812Z,5.58
2022-08-18T20:22:42.376Z,5.65
2022-08-18T20:25:14.046Z,5.87
2022-08-18T20:27:44.954Z,4.87
2022-08-18T20:30:34.917Z,4.30
2022-08-18T20:33:09.344Z,5.62
2022-08-18T20:35:55.894Z,6.65
2022-08-18T20:38:48.408Z,6.25
2022-08-18T20:41:48.912Z,5.42
2022-08-18T20:44:29.416Z,5.28
2022-08-18T20:47:15.235Z,7.37
2022-08-18T20:49:53.797Z,5.47
2022-08-18T20:52:34.759Z,6.47
2022-08-18T20:55:11.687Z,4.78
2022-08-18T20:57:39.610Z,5.20
2022-08-18T21:00:22.721Z,5.37
2022-08-18T21:02:54.225Z,5.87
2022-08-18T21:05:34.665Z,5.35
2022-08-18T21:08:19.461Z,5.35
2022-08-18T21:10:59.761Z,7.40
2022-08-18T21:13:43.475Z,5.17
2022-08-18T21:16:15.195Z,4.92
2022-08-18T21:18:54.800Z,4.92
2022-08-18T21:21:27.288Z,5.58
2022-08-18T21:23:58.583Z,6.10
2022-08-18T21:26:29.262Z,6.30
2022-08-18T21:29:00.941Z,6.50
2022-08-18T21:31:44.061Z,5.80
2022-08-18T21:34:15.849Z,6.05
2022-08-18T21:36:53.635Z,5.62
2022-08-18T21:39:24.579Z,6.95
2022-08-18T21:41:56.230Z,9.00
2022-08-18T21:44:27.188Z,8.48
2022-08-18T21:47:09.357Z,6.05
2022-08-18T21:49:37.945Z,7.60
2022-08-18T21:52:07.096Z,9.10
2022-08-18T21:54:37.374Z,6.40
2022-08-18T21:57:22.184Z,6.90
2022-08-18T22:00:14.995Z,12.93
2022-08-18T22:02:43.939Z,10.23
2022-08-18T22:05:15.686Z,7.58
2022-08-18T22:07:48.597Z,12.23
2022-08-18T22:10:30.588Z,8.80
2022-08-18T22:13:17.111Z,7.45
2022-08-18T22:15:48.107Z,6.53
2022-08-18T22:18:35.525Z,6.72
2022-08-18T22:21:09.220Z,7.65
2022-08-18T22:23:59.263Z,6.70
2022-08-18T22:26:31.234Z,6.87
2022-08-18T22:29:14.965Z,9.07
2022-08-18T22:31:46.172Z,8.55
2022-08-18T22:34:27.467Z,7.10
2022-08-18T22:36:59.065Z,8.73
2022-08-18T22:39:30.740Z,6.75
2022-08-18T22:41:59.555Z,7.25
2022-08-18T22:44:28.782Z,7.87
2022-08-18T22:46:57.493Z,6.92
2022-08-18T22:49:27.486Z,7.03
2022-08-18T22:51:56.529Z,6.12
2022-08-18T22:54:25.686Z,7.17
2022-08-18T22:56:57.702Z,7.55
2022-08-18T22:59:28.015Z,8.88
2022-08-18T23:01:58.575Z,9.18
2022-08-18T23:04:31.097Z,8.10
2022-08-18T23:07:00.402Z,7.83
2022-08-18T23:09:32.393Z,7.78
2022-08-18T23:12:04.423Z,6.90
2022-08-18T23:14:33.201Z,7.50
2022-08-18T23:17:02.424Z,11.85
2022-08-18T23:19:31.923Z,8.75
2022-08-18T23:22:00.932Z,7.10
2022-08-18T23:24:30.914Z,7.80
2022-08-18T23:26:59.690Z,7.60
2022-08-18T23:29:28.022Z,7.37
2022-08-18T23:31:56.258Z,8.58
2022-08-18T23:34:24.856Z,7.70
2022-08-18T23:36:55.470Z,7.30
2022-08-18T23:39:24.633Z,6.87
2022-08-18T23:41:55.874Z,7.55
2022-08-18T23:44:27.314Z,7.90
2022-08-18T23:46:54.819Z,9.08
2022-08-18T23:49:23.153Z,8.00
2022-08-18T23:51:53.815Z,7.50
2022-08-18T23:54:23.971Z,7.58
2022-08-18T23:56:52.205Z,9.45
2022-08-18T23:59:21.616Z,8.75
